createdAt,value
2018-02-19T00:02:02.071Z,21.10
2018-02-19T00:04:28.573Z,18.83
2018-02-19T00:06:55.757Z,19.20
2018-02-19T00:09:22.199Z,23.00
2018-02-19T00:11:48.617Z,22.45
2018-02-19T00:14:15.095Z,19.95
2018-02-19T00:16:41.581Z,21.80
2018-02-19T00:19:08.062Z,20.05
2018-02-19T00:21:34.440Z,22.87
2018-02-19T00:24:00.845Z,20.30
2018-02-19T00:26:27.549Z,19.12
2018-02-19T00:28:53.976Z,20.50
2018-02-19T00:31:20.420Z,20.02
2018-02-19T00:33:46.902Z,21.65
2018-02-19T00:36:13.400Z,19.67
2018-02-19T00:38:39.804Z,21.05
2018-02-19T00:41:06.270Z,22.77
2018-02-19T00:43:32.688Z,19.70
2018-02-19T00:45:59.166Z,21.02
2018-02-19T00:48:25.639Z,21.27
2018-02-19T00:50:52.662Z,22.10
2018-02-19T00:53:19.137Z,20.50
2018-02-19T00:55:45.611Z,22.23
2018-02-19T00:58:12.783Z,21.42
2018-02-19T01:00:39.969Z,19.47
2018-02-19T01:03:06.406Z,18.58
2018-02-19T01:05:32.870Z,20.33
2018-02-19T01:07:59.388Z,20.45
2018-02-19T01:10:25.820Z,21.37
2018-02-19T01:12:53.302Z,19.52
2018-02-19T01:15:20.541Z,19.93
2018-02-19T01:17:47.700Z,21.80
2018-02-19T01:20:14.117Z,22.47
2018-02-19T01:22:40.535Z,19.37
2018-02-19T01:25:07.018Z,18.20
2018-02-19T01:27:33.506Z,19.52
2018-02-19T01:29:59.929Z,19.10
2018-02-19T01:32:26.371Z,20.25
2018-02-19T01:34:52.856Z,18.90
2018-02-19T01:37:19.288Z,20.12
2018-02-19T01:39:45.715Z,20.77
2018-02-19T01:42:12.129Z,19.47
2018-02-19T01:44:39.324Z,22.33
2018-02-19T01:47:05.912Z,20.47
2018-02-19T01:49:32.400Z,19.83
2018-02-19T01:51:58.906Z,23.20
2018-02-19T01:54:25.441Z,18.92
2018-02-19T01:56:51.909Z,23.40
2018-02-19T01:59:18.341Z,18.65
2018-02-19T02:01:44.810Z,22.13
2018-02-19T02:04:12.007Z,19.90
2018-02-19T02:06:38.467Z,20.63
2018-02-19T02:09:05.344Z,22.00
2018-02-19T02:11:31.771Z,20.43
2018-02-19T02:13:58.178Z,21.17
2018-02-19T02:16:24.613Z,18.67
2018-02-19T02:18:51.779Z,22.90
2018-02-19T02:21:18.259Z,21.97
2018-02-19T02:23:44.755Z,23.73
2018-02-19T02:26:11.275Z,21.65
2018-02-19T02:28:37.727Z,21.60
2018-02-19T02:31:04.663Z,21.70
2018-02-19T02:33:31.975Z,22.55
2018-02-19T02:35:58.821Z,22.30
2018-02-19T02:38:25.563Z,19.95
2018-02-19T02:40:52.031Z,21.33
2018-02-19T02:43:18.589Z,19.98
2018-02-19T02:45:45.024Z,23.00
2018-02-19T02:48:12.171Z,22.73
2018-02-19T02:50:38.605Z,21.00
2018-02-19T02:53:05.531Z,21.30
2018-02-19T02:55:32.019Z,22.73
2018-02-19T02:57:58.497Z,22.73
2018-02-19T03:00:24.964Z,22.40
2018-02-19T03:02:51.450Z,22.85
2018-02-19T03:05:18.692Z,20.30
2018-02-19T03:07:45.257Z,22.00
2018-02-19T03:10:12.434Z,23.52
2018-02-19T03:12:38.886Z,22.15
2018-02-19T03:15:05.535Z,20.73
2018-02-19T03:17:31.978Z,22.62
2018-02-19T03:19:58.423Z,21.98
2018-02-19T03:22:24.824Z,23.08
2018-02-19T03:24:52.040Z,22.55
2018-02-19T03:27:19.422Z,22.67
2018-02-19T03:29:45.880Z,23.13
2018-02-19T03:32:12.450Z,25.65
2018-02-19T03:34:40.233Z,25.70
2018-02-19T03:37:07.410Z,24.35
2018-02-19T03:39:33.830Z,25.10
2018-02-19T03:42:01.009Z,22.80
2018-02-19T03:44:27.439Z,22.77
2018-02-19T03:46:53.903Z,23.70
2018-02-19T03:49:20.313Z,24.80
2018-02-19T03:51:46.742Z,24.45
2018-02-19T03:54:13.282Z,26.12
2018-02-19T03:56:40.736Z,23.80
2018-02-19T03:59:07.242Z,28.12
2018-02-19T04:01:33.739Z,24.55
2018-02-19T04:04:00.961Z,24.30
2018-02-19T04:06:27.447Z,24.08
2018-02-19T04:08:53.896Z,25.45
2018-02-19T04:11:21.110Z,23.50
2018-02-19T04:13:47.640Z,25.57
2018-02-19T04:16:15.587Z,24.07
2018-02-19T04:18:42.048Z,25.40
2018-02-19T04:21:08.593Z,25.37
2018-02-19T04:23:35.094Z,24.13
2018-02-19T04:26:01.549Z,24.75
2018-02-19T04:28:28.806Z,24.55
2018-02-19T04:30:55.259Z,22.45
2018-02-19T04:33:21.701Z,26.60
2018-02-19T04:35:48.156Z,25.30
2018-02-19T04:38:14.912Z,21.80
2018-02-19T04:40:42.121Z,25.03
2018-02-19T04:43:08.635Z,18.17
2018-02-19T04:48:34.820Z,23.83
2018-02-19T04:51:01.268Z,20.20
2018-02-19T04:53:27.729Z,24.37
2018-02-19T04:55:54.175Z,21.92
2018-02-19T04:58:20.606Z,22.00
2018-02-19T05:00:47.059Z,24.63
2018-02-19T05:03:13.526Z,21.55
2018-02-19T05:05:39.961Z,20.35
2018-02-19T05:08:06.804Z,22.83
2018-02-19T05:10:33.228Z,22.87
2018-02-19T05:12:59.744Z,24.07
2018-02-19T05:15:26.216Z,23.37
2018-02-19T05:17:52.680Z,25.37
2018-02-19T05:20:19.107Z,22.05
2018-02-19T05:22:45.598Z,24.27
2018-02-19T05:25:12.121Z,21.48
2018-02-19T05:27:38.683Z,25.20
2018-02-19T05:30:05.527Z,23.50
2018-02-19T05:32:32.235Z,22.50
2018-02-19T05:34:58.671Z,24.42
2018-02-19T05:37:25.171Z,26.75
2018-02-19T05:39:53.149Z,22.85
2018-02-19T05:42:19.585Z,25.48
2018-02-19T05:44:46.247Z,24.40
2018-02-19T05:47:12.663Z,23.90
2018-02-19T05:49:39.103Z,24.10
2018-02-19T05:52:05.873Z,24.20
2018-02-19T05:54:33.091Z,22.33
2018-02-19T05:56:59.567Z,25.08
2018-02-19T05:59:26.164Z,21.55
2018-02-19T06:01:52.719Z,24.43
2018-02-19T06:04:19.863Z,24.43
2018-02-19T06:06:46.328Z,23.48
2018-02-19T06:09:12.768Z,23.87
2018-02-19T06:11:40.028Z,22.75
2018-02-19T06:14:06.943Z,24.73
2018-02-19T06:16:33.428Z,22.83
2018-02-19T06:18:59.925Z,21.90
2018-02-19T06:21:27.272Z,21.65
2018-02-19T06:23:54.008Z,22.05
2018-02-19T06:26:20.492Z,21.00
2018-02-19T06:28:47.046Z,22.48
2018-02-19T06:31:13.568Z,22.83
2018-02-19T06:33:40.046Z,22.62
2018-02-19T06:36:07.180Z,23.15
2018-02-19T06:38:34.419Z,22.05
2018-02-19T06:41:01.045Z,22.80
2018-02-19T06:43:27.512Z,24.42
2018-02-19T06:45:55.455Z,22.42
2018-02-19T06:48:21.986Z,21.83
2018-02-19T06:50:49.162Z,20.33
2018-02-19T06:53:15.579Z,21.55
2018-02-19T06:55:43.496Z,20.08
2018-02-19T06:58:09.974Z,22.50
2018-02-19T07:00:36.541Z,21.92
2018-02-19T07:03:03.290Z,21.87
2018-02-19T07:05:30.054Z,21.30
2018-02-19T07:07:57.255Z,20.10
2018-02-19T07:10:23.747Z,23.40
2018-02-19T07:12:50.211Z,20.63
2018-02-19T07:15:16.738Z,18.70
2018-02-19T07:17:44.027Z,21.80
2018-02-19T07:20:10.557Z,19.40
2018-02-19T07:22:37.103Z,21.10
2018-02-19T07:25:05.402Z,22.27
2018-02-19T07:27:32.047Z,22.10
2018-02-19T07:29:58.481Z,20.37
2018-02-19T07:32:25.082Z,22.23
2018-02-19T07:34:51.550Z,19.83
2018-02-19T07:37:17.970Z,20.53
2018-02-19T07:39:44.419Z,20.60
2018-02-19T07:42:10.897Z,18.70
2018-02-19T07:44:37.318Z,21.37
2018-02-19T07:47:04.482Z,21.97
2018-02-19T07:49:30.937Z,16.40
2018-02-19T07:51:57.351Z,19.30
2018-02-19T07:54:23.808Z,19.70
2018-02-19T07:56:50.208Z,20.20
2018-02-19T07:59:16.701Z,19.07
2018-02-19T08:01:43.223Z,17.97
2018-02-19T08:04:09.812Z,18.50
2018-02-19T08:06:37.040Z,18.10
2018-02-19T08:09:04.020Z,21.23
2018-02-19T08:11:31.751Z,16.63
2018-02-19T08:13:58.181Z,20.60
2018-02-19T08:16:24.591Z,19.87
2018-02-19T08:18:51.807Z,18.17
2018-02-19T08:21:19.080Z,17.30
2018-02-19T08:23:45.544Z,19.77
2018-02-19T08:26:12.039Z,18.10
2018-02-19T08:28:39.269Z,20.10
2018-02-19T08:31:06.237Z,19.03
2018-02-19T08:33:33.484Z,20.47
2018-02-19T08:36:00.751Z,16.97
2018-02-19T08:38:27.171Z,19.60
2018-02-19T08:40:53.700Z,19.27
2018-02-19T08:43:20.172Z,18.50
2018-02-19T08:45:47.432Z,16.83
2018-02-19T08:48:13.950Z,19.20
2018-02-19T08:50:40.428Z,17.00
2018-02-19T08:53:07.621Z,18.93
2018-02-19T08:55:34.046Z,18.90
2018-02-19T08:58:01.298Z,18.27
2018-02-19T09:00:28.782Z,18.70
2018-02-19T09:02:55.941Z,17.43
2018-02-19T09:05:23.115Z,17.53
2018-02-19T09:07:49.600Z,15.73
2018-02-19T09:10:16.051Z,18.10
2018-02-19T09:12:42.523Z,20.10
2018-02-19T09:15:08.963Z,18.70
2018-02-19T09:17:36.133Z,16.70
2018-02-19T09:20:02.981Z,16.20
2018-02-19T09:22:29.443Z,16.60
2018-02-19T09:24:55.879Z,19.37
2018-02-19T09:27:23.081Z,17.17
2018-02-19T09:29:49.560Z,16.30
2018-02-19T09:32:16.742Z,17.37
2018-02-19T09:34:50.871Z,15.97
2018-02-19T09:37:18.103Z,17.30
2018-02-19T09:39:45.316Z,18.63
2018-02-19T09:42:12.429Z,17.87
2018-02-19T09:44:38.247Z,17.50
2018-02-19T09:47:05.417Z,17.60
2018-02-19T09:49:31.809Z,19.60
2018-02-19T09:51:58.315Z,19.20
2018-02-19T09:54:25.474Z,18.73
2018-02-19T09:56:51.925Z,18.40
2018-02-19T09:59:18.455Z,20.80
2018-02-19T10:01:44.908Z,18.93
2018-02-19T10:04:12.074Z,17.83
2018-02-19T10:06:38.529Z,15.60
2018-02-19T10:09:04.987Z,18.97
2018-02-19T10:11:31.436Z,19.60
2018-02-19T10:13:58.056Z,18.00
2018-02-19T10:16:24.520Z,20.33
2018-02-19T10:18:50.945Z,18.90
2018-02-19T10:21:17.792Z,19.70
2018-02-19T10:23:44.229Z,18.00
2018-02-19T10:26:11.407Z,19.30
2018-02-19T10:28:38.324Z,18.80
2018-02-19T10:31:05.600Z,18.43
2018-02-19T10:33:32.017Z,17.33
2018-02-19T10:35:58.457Z,18.93
2018-02-19T10:38:24.907Z,18.53
2018-02-19T10:40:51.341Z,17.63
2018-02-19T10:43:17.794Z,17.73
2018-02-19T10:45:44.228Z,18.83
2018-02-19T10:48:10.657Z,17.87
2018-02-19T10:50:37.072Z,19.07
2018-02-19T10:53:03.608Z,18.73
2018-02-19T10:55:30.783Z,18.93
2018-02-19T10:57:57.920Z,19.83
2018-02-19T11:00:30.487Z,17.00
2018-02-19T11:02:57.058Z,19.43
2018-02-19T11:05:24.292Z,14.33
2018-02-19T11:07:50.726Z,15.77
2018-02-19T11:10:17.160Z,17.77
2018-02-19T11:12:43.603Z,18.87
2018-02-19T11:15:10.046Z,20.07
2018-02-19T11:17:36.458Z,19.90
2018-02-19T11:20:03.110Z,17.53
2018-02-19T11:22:29.534Z,17.27
2018-02-19T11:24:55.979Z,15.53
2018-02-19T11:27:22.496Z,17.57
2018-02-19T11:29:49.679Z,15.77
2018-02-19T11:32:16.875Z,17.40
2018-02-19T11:34:43.292Z,18.07
2018-02-19T11:37:09.815Z,19.33
2018-02-19T11:39:36.979Z,17.43
2018-02-19T11:42:04.204Z,17.40
2018-02-19T11:44:30.676Z,17.60
2018-02-19T11:46:58.604Z,18.57
2018-02-19T11:49:24.999Z,18.87
2018-02-19T11:51:51.563Z,19.40
2018-02-19T11:54:18.724Z,20.33
2018-02-19T11:56:45.892Z,16.07
2018-02-19T11:59:12.372Z,20.00
2018-02-19T12:01:38.803Z,19.17
2018-02-19T12:04:05.280Z,19.17
2018-02-19T12:06:31.689Z,18.73
2018-02-19T12:08:58.134Z,18.40
2018-02-19T12:11:24.584Z,24.83
2018-02-19T12:13:51.020Z,17.70
2018-02-19T12:16:17.473Z,19.40
2018-02-19T12:18:44.122Z,18.20
2018-02-19T12:21:10.584Z,19.20
2018-02-19T12:23:37.056Z,18.47
2018-02-19T12:26:03.538Z,18.73
2018-02-19T12:28:30.020Z,17.63
2018-02-19T12:30:56.406Z,23.20
2018-02-19T12:33:23.005Z,20.60
2018-02-19T12:35:49.520Z,19.97
2018-02-19T12:38:15.975Z,19.70
2018-02-19T12:40:42.477Z,18.90
2018-02-19T12:43:08.871Z,17.97
2018-02-19T12:45:35.346Z,23.30
2018-02-19T12:48:01.778Z,17.70
2018-02-19T12:50:28.397Z,20.40
2018-02-19T12:52:54.813Z,21.27
2018-02-19T12:55:21.337Z,19.00
2018-02-19T12:57:47.741Z,19.50
2018-02-19T13:00:14.182Z,18.33
2018-02-19T13:02:40.620Z,19.47
2018-02-19T13:05:07.893Z,20.63
2018-02-19T13:07:34.482Z,19.90
2018-02-19T13:10:01.656Z,16.97
2018-02-19T13:12:28.159Z,18.37
2018-02-19T13:14:54.837Z,19.33
2018-02-19T13:17:22.035Z,18.40
2018-02-19T13:19:48.501Z,17.70
2018-02-19T13:22:14.987Z,18.30
2018-02-19T13:24:41.418Z,16.80
2018-02-19T13:27:08.630Z,19.40
2018-02-19T13:29:35.440Z,17.43
2018-02-19T13:32:02.257Z,17.50
2018-02-19T13:34:28.827Z,19.80
2018-02-19T13:36:55.299Z,18.93
2018-02-19T13:39:21.931Z,19.17
2018-02-19T13:41:49.104Z,20.57
2018-02-19T13:44:16.329Z,18.00
2018-02-19T13:46:42.803Z,20.63
2018-02-19T13:49:10.027Z,18.67
2018-02-19T13:51:36.502Z,17.03
2018-02-19T13:54:05.468Z,17.37
2018-02-19T13:56:31.992Z,19.03
2018-02-19T13:58:58.424Z,18.90
2018-02-19T14:01:24.907Z,18.67
2018-02-19T14:03:52.191Z,17.70
2018-02-19T14:06:18.709Z,18.17
2018-02-19T14:08:46.644Z,17.77
2018-02-19T14:11:13.077Z,15.83
2018-02-19T14:13:40.396Z,16.90
2018-02-19T14:16:07.322Z,18.63
2018-02-19T14:18:34.088Z,16.97
2018-02-19T14:21:00.582Z,15.97
2018-02-19T14:23:27.847Z,18.73
2018-02-19T14:25:55.135Z,18.47
2018-02-19T14:28:21.850Z,17.43
2018-02-19T14:30:48.452Z,15.13
2018-02-19T14:33:15.012Z,17.80
2018-02-19T14:35:43.151Z,17.97
2018-02-19T14:38:11.320Z,16.17
2018-02-19T14:40:37.889Z,16.97
2018-02-19T14:43:05.996Z,17.40
2018-02-19T14:45:32.558Z,15.67
2018-02-19T14:47:59.660Z,16.40
2018-02-19T14:50:26.212Z,16.97
2018-02-19T14:52:53.537Z,18.67
2018-02-19T14:55:20.846Z,16.43
2018-02-19T14:57:47.592Z,17.83
2018-02-19T15:00:15.276Z,15.50
2018-02-19T15:02:42.700Z,15.27
2018-02-19T15:05:09.348Z,15.90
2018-02-19T15:07:36.105Z,17.57
2018-02-19T15:10:04.870Z,19.40
2018-02-19T15:12:32.822Z,18.20
2018-02-19T15:14:59.383Z,17.77
2018-02-19T15:17:26.480Z,19.27
2018-02-19T15:19:54.602Z,17.57
2018-02-19T15:22:21.507Z,17.93
2018-02-19T15:24:49.824Z,18.10
2018-02-19T15:27:16.556Z,15.90
2018-02-19T15:29:44.616Z,17.73
2018-02-19T15:32:12.808Z,17.40
2018-02-19T15:34:39.647Z,17.17
2018-02-19T15:37:06.336Z,17.00
2018-02-19T15:39:34.475Z,17.83
2018-02-19T15:42:01.562Z,17.67
2018-02-19T15:44:29.567Z,16.17
2018-02-19T15:47:02.114Z,16.30
2018-02-19T15:49:30.420Z,15.93
2018-02-19T15:51:59.183Z,17.00
2018-02-19T15:54:26.004Z,17.17
2018-02-19T15:56:58.190Z,15.07
2018-02-19T15:59:26.265Z,14.87
2018-02-19T16:01:54.523Z,15.73
2018-02-19T16:04:23.788Z,15.67
2018-02-19T16:06:51.662Z,15.17
2018-02-19T16:09:18.413Z,14.33
2018-02-19T16:11:50.254Z,14.30
2018-02-19T16:14:23.103Z,16.33
2018-02-19T16:16:50.681Z,15.67
2018-02-19T16:19:17.288Z,14.33
2018-02-19T16:21:45.511Z,14.43
2018-02-19T16:24:12.030Z,14.27
2018-02-19T16:26:39.200Z,16.20
2018-02-19T16:29:06.531Z,13.60
2018-02-19T16:31:33.144Z,16.47
2018-02-19T16:33:59.719Z,15.50
2018-02-19T16:36:26.364Z,14.70
2018-02-19T16:38:53.822Z,14.23
2018-02-19T16:41:25.961Z,15.77
2018-02-19T16:43:53.580Z,15.83
2018-02-19T16:46:20.492Z,14.90
2018-02-19T16:48:48.587Z,15.67
2018-02-19T16:51:16.449Z,13.30
2018-02-19T16:53:45.149Z,14.80
2018-02-19T16:56:12.187Z,15.57
2018-02-19T16:58:42.177Z,16.20
2018-02-19T17:01:13.069Z,14.57
2018-02-19T17:03:43.457Z,14.50
2018-02-19T17:06:11.435Z,14.87
2018-02-19T17:08:40.087Z,16.00
2018-02-19T17:11:12.942Z,17.20
2018-02-19T17:13:45.014Z,14.63
2018-02-19T17:16:13.912Z,17.07
2018-02-19T17:18:42.482Z,14.20
2018-02-19T17:21:10.198Z,15.40
2018-02-19T17:23:38.216Z,13.27
2018-02-19T17:26:05.950Z,23.57
2018-02-19T17:28:32.619Z,18.53
2018-02-19T17:30:59.195Z,15.13
2018-02-19T17:33:25.988Z,14.83
2018-02-19T17:35:52.589Z,15.27
2018-02-19T17:38:19.396Z,16.80
2018-02-19T17:40:46.256Z,15.30
2018-02-19T17:43:14.378Z,15.17
2018-02-19T17:45:41.162Z,16.60
2018-02-19T17:48:07.880Z,16.00
2018-02-19T17:50:35.402Z,17.37
2018-02-19T17:53:01.875Z,19.30
2018-02-19T17:55:28.292Z,16.67
2018-02-19T17:57:55.540Z,21.10
2018-02-19T18:00:22.095Z,19.60
2018-02-19T18:02:48.575Z,17.63
2018-02-19T18:05:15.027Z,17.90
2018-02-19T18:07:41.560Z,16.57
2018-02-19T18:10:08.168Z,15.77
2018-02-19T18:12:34.589Z,18.93
2018-02-19T18:15:01.037Z,16.77
2018-02-19T18:17:27.487Z,16.37
2018-02-19T18:19:54.687Z,14.83
2018-02-19T18:22:21.151Z,15.20
2018-02-19T18:24:47.623Z,15.03
2018-02-19T18:27:14.163Z,15.40
2018-02-19T18:29:41.475Z,14.93
2018-02-19T18:32:08.007Z,15.10
2018-02-19T18:34:34.487Z,16.50
2018-02-19T18:37:00.927Z,15.57
2018-02-19T18:39:27.368Z,16.87
2018-02-19T18:41:53.909Z,16.97
2018-02-19T18:44:20.508Z,16.90
2018-02-19T18:46:46.980Z,19.33
2018-02-19T18:49:13.433Z,18.33
2018-02-19T18:51:40.110Z,16.20
2018-02-19T18:54:06.622Z,16.80
2018-02-19T18:56:33.164Z,18.23
2018-02-19T18:59:00.383Z,16.73
2018-02-19T19:01:26.878Z,15.40
2018-02-19T19:03:53.299Z,15.77
2018-02-19T19:06:19.792Z,16.17
2018-02-19T19:08:58.449Z,15.00
2018-02-19T19:11:24.932Z,15.83
2018-02-19T19:13:52.406Z,16.43
2018-02-19T19:16:19.663Z,17.10
2018-02-19T19:18:46.115Z,19.53
2018-02-19T19:21:12.649Z,21.23
2018-02-19T19:23:39.106Z,18.90
2018-02-19T19:26:05.955Z,22.17
2018-02-19T19:28:33.173Z,22.83
2018-02-19T19:30:59.657Z,21.10
2018-02-19T19:33:26.100Z,24.03
2018-02-19T19:35:54.033Z,22.87
2018-02-19T19:38:20.532Z,21.80
2018-02-19T19:40:47.767Z,33.80
2018-02-19T19:43:14.207Z,22.70
2018-02-19T19:45:40.776Z,21.37
2018-02-19T19:48:08.076Z,20.40
2018-02-19T19:50:34.603Z,19.23
2018-02-19T19:53:01.976Z,19.00
2018-02-19T19:55:29.368Z,19.93
2018-02-19T19:57:56.532Z,18.00
2018-02-19T20:00:22.976Z,17.77
2018-02-19T20:02:49.689Z,19.70
2018-02-19T20:05:16.116Z,17.97
2018-02-19T20:07:43.319Z,18.63
2018-02-19T20:10:10.545Z,19.77
2018-02-19T20:12:37.069Z,18.50
2018-02-19T20:15:04.156Z,17.47
2018-02-19T20:17:30.702Z,19.57
2018-02-19T20:19:57.908Z,18.67
2018-02-19T20:22:24.340Z,20.47
2018-02-19T20:24:51.586Z,22.20
2018-02-19T20:27:18.071Z,20.87
2018-02-19T20:29:44.606Z,20.97
2018-02-19T20:32:11.098Z,18.87
2018-02-19T20:34:38.575Z,19.70
2018-02-19T20:37:05.516Z,18.70
2018-02-19T20:39:31.944Z,19.00
2018-02-19T20:41:58.392Z,22.63
2018-02-19T20:44:24.860Z,20.77
2018-02-19T20:46:51.302Z,32.93
2018-02-19T20:49:18.734Z,35.47
2018-02-19T20:51:45.191Z,24.00
2018-02-19T20:54:11.668Z,24.10
2018-02-19T20:56:38.091Z,27.00
2018-02-19T20:59:05.042Z,28.23
2018-02-19T21:01:31.502Z,23.27
2018-02-19T21:03:58.022Z,32.73
2018-02-19T21:06:24.467Z,26.07
2018-02-19T21:08:50.951Z,19.37
2018-02-19T21:11:18.211Z,23.23
2018-02-19T21:13:45.440Z,21.90
2018-02-19T21:16:12.000Z,23.00
2018-02-19T21:18:38.547Z,24.20
2018-02-19T21:21:05.763Z,20.73
2018-02-19T21:23:32.447Z,23.57
2018-02-19T21:25:59.032Z,21.97
2018-02-19T21:28:25.487Z,20.13
2018-02-19T21:30:51.976Z,18.50
2018-02-19T21:33:18.413Z,20.90
2018-02-19T21:35:44.934Z,19.07
2018-02-19T21:38:12.102Z,18.77
2018-02-19T21:40:38.591Z,20.60
2018-02-19T21:43:05.633Z,21.30
2018-02-19T21:45:32.052Z,17.20
2018-02-19T21:47:58.539Z,18.87
2018-02-19T21:50:25.728Z,18.20
2018-02-19T21:52:52.227Z,17.70
2018-02-19T21:55:18.635Z,19.50
2018-02-19T21:57:45.103Z,20.07
2018-02-19T22:00:11.574Z,20.30
2018-02-19T22:02:37.993Z,20.10
2018-02-19T22:05:04.858Z,19.90
2018-02-19T22:07:31.995Z,22.23
2018-02-19T22:09:58.451Z,29.63
2018-02-19T22:12:24.908Z,29.13
2018-02-19T22:14:51.445Z,25.30
2018-02-19T22:17:18.688Z,24.27
2018-02-19T22:19:45.919Z,24.10
2018-02-19T22:22:12.374Z,24.10
2018-02-19T22:24:38.852Z,22.27
2018-02-19T22:27:05.434Z,20.70
2018-02-19T22:29:31.954Z,19.70
2018-02-19T22:31:59.200Z,23.47
2018-02-19T22:34:25.759Z,20.50
2018-02-19T22:36:52.164Z,20.67
2018-02-19T22:39:18.643Z,18.90
2018-02-19T22:41:45.180Z,21.80
2018-02-19T22:44:12.441Z,22.60
2018-02-19T22:46:39.764Z,24.40
2018-02-19T22:49:06.248Z,20.77
2018-02-19T22:51:32.800Z,18.00
2018-02-19T22:53:59.538Z,20.97
2018-02-19T22:56:25.956Z,19.73
2018-02-19T22:58:52.387Z,20.37
2018-02-19T23:01:18.843Z,19.70
2018-02-19T23:03:45.327Z,21.17
2018-02-19T23:06:11.883Z,27.40
2018-02-19T23:08:38.314Z,24.13
2018-02-19T23:11:05.281Z,25.53
2018-02-19T23:13:31.712Z,21.73
2018-02-19T23:15:58.173Z,25.77
2018-02-19T23:18:24.596Z,22.37
2018-02-19T23:20:51.257Z,21.40
2018-02-19T23:23:17.671Z,23.07
2018-02-19T23:25:44.156Z,22.90
2018-02-19T23:28:10.615Z,22.57
2018-02-19T23:30:37.784Z,20.50
2018-02-19T23:33:05.123Z,19.47
2018-02-19T23:35:32.360Z,19.27
2018-02-19T23:37:58.770Z,20.60
2018-02-19T23:40:25.266Z,20.20
2018-02-19T23:42:51.731Z,22.77
2018-02-19T23:45:18.568Z,20.00
2018-02-19T23:47:45.024Z,21.63
2018-02-19T23:50:11.559Z,18.47
2018-02-19T23:52:38.033Z,20.37
2018-02-19T23:55:04.875Z,20.10
2018-02-19T23:57:32.082Z,19.10
2018-02-19T23:59:58.510Z,22.20
